createdAt,value
2023-02-11T00:01:50.089Z,0.28
2023-02-11T00:04:17.119Z,0.19
2023-02-11T00:06:43.897Z,0.21
2023-02-11T00:09:11.452Z,0.32
2023-02-11T00:11:38.187Z,0.34
2023-02-11T00:14:08.292Z,0.21
2023-02-11T00:16:35.113Z,0.17
2023-02-11T00:19:03.326Z,0.20
2023-02-11T00:21:30.130Z,0.22
2023-02-11T00:23:59.953Z,0.22
2023-02-11T00:26:35.092Z,0.16
2023-02-11T00:29:02.494Z,0.19
2023-02-11T00:31:31.490Z,0.25
2023-02-11T00:33:58.215Z,0.16
2023-02-11T00:36:27.632Z,0.14
2023-02-11T00:38:56.595Z,0.12
2023-02-11T00:41:23.833Z,0.07
2023-02-11T00:43:51.245Z,0.05
2023-02-11T00:46:19.053Z,0.07
2023-02-11T00:48:45.924Z,0.11
2023-02-11T00:51:12.700Z,0.09
2023-02-11T00:53:39.467Z,0.15
2023-02-11T00:56:08.004Z,0.06
2023-02-11T00:58:34.979Z,0.04
2023-02-11T01:01:01.675Z,0.03
2023-02-11T01:03:28.384Z,-0.05
2023-02-11T01:05:55.548Z,-0.17
2023-02-11T01:08:22.421Z,-0.17
2023-02-11T01:11:04.391Z,-0.05
2023-02-11T01:13:35.004Z,-0.06
2023-02-11T01:16:01.704Z,-0.20
2023-02-11T01:18:28.574Z,-0.27
2023-02-11T01:20:55.273Z,-0.35
2023-02-11T01:23:23.578Z,-0.30
2023-02-11T01:25:51.346Z,-0.22
2023-02-11T01:28:20.033Z,-0.27
2023-02-11T01:30:47.173Z,-0.19
2023-02-11T01:33:14.144Z,-0.28
2023-02-11T01:35:44.445Z,-0.24
2023-02-11T01:38:23.897Z,-0.24
2023-02-11T01:40:55.650Z,-0.28
2023-02-11T01:43:24.732Z,-0.36
2023-02-11T01:45:59.396Z,-0.26
2023-02-11T01:48:36.674Z,-0.29
2023-02-11T01:51:09.287Z,-0.24
2023-02-11T01:53:57.084Z,-0.30
2023-02-11T01:56:45.560Z,-0.36
2023-02-11T01:59:17.330Z,-0.39
2023-02-11T02:01:50.548Z,-0.38
2023-02-11T02:04:19.188Z,-0.39
2023-02-11T02:07:24.372Z,-0.39
2023-02-11T02:10:00.395Z,-0.35
2023-02-11T02:12:27.144Z,-0.32
2023-02-11T02:15:17.610Z,-0.39
2023-02-11T02:18:01.004Z,-0.48
2023-02-11T02:20:45.806Z,-0.39
2023-02-11T02:23:18.430Z,-0.45
2023-02-11T02:26:00.206Z,-0.48
2023-02-11T02:29:18.003Z,-0.52
2023-02-11T02:32:10.353Z,-0.58
2023-02-11T02:34:53.175Z,-0.60
2023-02-11T02:37:37.893Z,-0.71
2023-02-11T02:40:12.782Z,-0.70
2023-02-11T02:42:41.180Z,-0.62
2023-02-11T02:45:10.514Z,-0.63
2023-02-11T02:47:37.317Z,-0.78
2023-02-11T02:50:06.141Z,-0.90
2023-02-11T02:53:06.514Z,-0.84
2023-02-11T02:55:38.869Z,-0.73
2023-02-11T02:58:20.402Z,-0.64
2023-02-11T03:00:47.079Z,-0.68
2023-02-11T03:03:40.968Z,-0.83
2023-02-11T03:06:29.863Z,-0.76
2023-02-11T03:09:39.296Z,-0.69
2023-02-11T03:12:07.020Z,-0.82
2023-02-11T03:14:35.797Z,-0.80
2023-02-11T03:17:05.626Z,-0.79
2023-02-11T03:19:37.742Z,-0.81
2023-02-11T03:22:09.727Z,-0.73
2023-02-11T03:24:39.618Z,-0.83
2023-02-11T03:27:25.945Z,-0.92
2023-02-11T03:30:01.317Z,-0.92
2023-02-11T03:32:35.705Z,-0.94
2023-02-11T03:35:21.482Z,-0.79
2023-02-11T03:37:57.073Z,-0.88
2023-02-11T03:40:25.992Z,-0.82
2023-02-11T03:43:03.214Z,-0.79
2023-02-11T03:45:30.743Z,-0.84
2023-02-11T03:48:08.914Z,-0.80
2023-02-11T03:50:37.331Z,-0.82
2023-02-11T03:53:05.356Z,-0.91
2023-02-11T03:55:36.917Z,-0.92
2023-02-11T03:58:03.959Z,-1.07
2023-02-11T04:00:36.692Z,-1.14
2023-02-11T04:03:04.502Z,-1.12
2023-02-11T04:05:31.567Z,-1.08
2023-02-11T04:07:58.306Z,-1.11
2023-02-11T04:10:25.656Z,-1.18
2023-02-11T04:12:52.405Z,-1.19
2023-02-11T04:15:19.151Z,-1.07
2023-02-11T04:17:45.818Z,-1.13
2023-02-11T04:20:13.021Z,-1.14
2023-02-11T04:22:40.275Z,-1.04
2023-02-11T04:25:07.924Z,-1.09
2023-02-11T04:27:34.575Z,-1.09
2023-02-11T04:30:01.200Z,-1.10
2023-02-11T04:32:28.076Z,-1.11
2023-02-11T04:34:55.359Z,-1.07
2023-02-11T04:37:22.102Z,-1.13
2023-02-11T04:39:48.729Z,-1.26
2023-02-11T04:42:15.614Z,-1.25
2023-02-11T04:44:42.230Z,-1.43
2023-02-11T04:47:08.946Z,-1.24
2023-02-11T04:49:35.690Z,-1.15
2023-02-11T04:52:02.310Z,-1.23
2023-02-11T04:54:28.923Z,-1.21
2023-02-11T04:56:55.524Z,-1.24
2023-02-11T04:59:22.174Z,-1.20
2023-02-11T05:01:49.893Z,-1.24
2023-02-11T05:04:16.874Z,-1.33
2023-02-11T05:06:43.608Z,-1.36
2023-02-11T05:09:14.435Z,-1.31
2023-02-11T05:11:41.121Z,-1.22
2023-02-11T05:14:07.869Z,-1.30
2023-02-11T05:16:34.925Z,-1.36
2023-02-11T05:19:01.552Z,-1.32
2023-02-11T05:21:28.274Z,-1.22
2023-02-11T05:23:54.847Z,-1.28
2023-02-11T05:26:21.536Z,-1.29
2023-02-11T05:28:48.223Z,-1.26
2023-02-11T05:31:15.206Z,-1.28
2023-02-11T05:33:42.076Z,-1.34
2023-02-11T05:36:11.729Z,-1.32
2023-02-11T05:38:38.972Z,-1.40
2023-02-11T05:41:06.527Z,-1.51
2023-02-11T05:43:35.361Z,-1.39
2023-02-11T05:46:03.797Z,-1.43
2023-02-11T05:48:31.042Z,-1.51
2023-02-11T05:50:57.883Z,-1.59
2023-02-11T05:53:24.556Z,-1.50
2023-02-11T05:55:51.653Z,-1.61
2023-02-11T05:58:18.475Z,-1.66
2023-02-11T06:00:45.164Z,-1.64
2023-02-11T06:03:11.794Z,-1.66
2023-02-11T06:05:38.664Z,-1.74
2023-02-11T06:08:05.526Z,-1.81
2023-02-11T06:10:32.179Z,-1.78
2023-02-11T06:12:58.801Z,-1.69
2023-02-11T06:15:25.524Z,-1.73
2023-02-11T06:17:52.364Z,-1.65
2023-02-11T06:20:19.655Z,-1.56
2023-02-11T06:22:46.919Z,-1.60
2023-02-11T06:25:14.144Z,-1.62
2023-02-11T06:27:41.199Z,-1.67
2023-02-11T06:30:08.619Z,-1.67
2023-02-11T06:32:43.935Z,-1.72
2023-02-11T06:35:12.559Z,-1.79
2023-02-11T06:37:40.970Z,-1.70
2023-02-11T06:40:08.180Z,-1.66
2023-02-11T06:42:36.262Z,-1.65
2023-02-11T06:45:06.063Z,-1.66
2023-02-11T06:47:32.994Z,-1.67
2023-02-11T06:49:59.762Z,-1.65
2023-02-11T06:52:26.431Z,-1.73
2023-02-11T06:54:53.008Z,-1.63
2023-02-11T06:57:19.817Z,-1.54
2023-02-11T06:59:46.370Z,-1.69
2023-02-11T07:02:13.029Z,-1.64
2023-02-11T07:04:39.732Z,-1.63
2023-02-11T07:07:06.557Z,-1.72
2023-02-11T07:09:33.143Z,-1.71
2023-02-11T07:11:59.772Z,-1.63
2023-02-11T07:14:26.347Z,-1.65
2023-02-11T07:16:53.116Z,-1.58
2023-02-11T07:19:20.051Z,-1.67
2023-02-11T07:21:46.756Z,-1.59
2023-02-11T07:24:13.333Z,-1.60
2023-02-11T07:26:40.320Z,-1.53
2023-02-11T07:29:07.111Z,-1.56
2023-02-11T07:31:33.971Z,-1.56
2023-02-11T07:34:01.931Z,-1.45
2023-02-11T07:36:30.107Z,-1.36
2023-02-11T07:38:56.684Z,-1.31
2023-02-11T07:41:24.854Z,-1.28
2023-02-11T07:43:51.804Z,-1.28
2023-02-11T07:46:25.858Z,-1.23
2023-02-11T07:48:53.195Z,-1.17
2023-02-11T07:51:22.999Z,-1.04
2023-02-11T07:53:50.020Z,-0.94
2023-02-11T07:56:18.135Z,-1.00
2023-02-11T07:58:45.550Z,-0.92
2023-02-11T08:01:16.630Z,-0.86
2023-02-11T08:03:43.843Z,-0.79
2023-02-11T08:06:14.167Z,-0.76
2023-02-11T08:08:41.881Z,-0.73
2023-02-11T08:11:09.938Z,-0.65
2023-02-11T08:13:37.320Z,-0.63
2023-02-11T08:16:04.872Z,-0.51
2023-02-11T08:18:32.496Z,-0.42
2023-02-11T08:21:17.910Z,-0.38
2023-02-11T08:23:45.488Z,-0.27
2023-02-11T08:26:20.158Z,-0.31
2023-02-11T08:28:48.119Z,-0.27
2023-02-11T08:31:18.085Z,-0.25
2023-02-11T08:33:45.287Z,-0.18
2023-02-11T08:36:23.962Z,-0.06
2023-02-11T08:38:51.085Z,-0.05
2023-02-11T08:41:18.239Z,0.04
2023-02-11T08:43:46.149Z,0.12
2023-02-11T08:46:16.260Z,0.19
2023-02-11T08:48:43.737Z,0.20
2023-02-11T08:51:15.589Z,0.24
2023-02-11T08:53:42.674Z,0.25
2023-02-11T08:56:13.347Z,0.30
2023-02-11T08:58:40.823Z,0.25
2023-02-11T09:01:29.112Z,0.39
2023-02-11T09:03:57.132Z,0.45
2023-02-11T09:06:25.721Z,0.45
2023-02-11T09:08:54.802Z,0.56
2023-02-11T09:11:34.394Z,0.43
2023-02-11T09:14:02.183Z,0.51
2023-02-11T09:16:36.091Z,0.56
2023-02-11T09:19:04.755Z,0.61
2023-02-11T09:21:31.892Z,0.65
2023-02-11T09:23:58.602Z,0.69
2023-02-11T09:26:28.381Z,0.76
2023-02-11T09:28:55.549Z,0.71
2023-02-11T09:31:24.998Z,0.73
2023-02-11T09:33:56.326Z,0.81
2023-02-11T09:36:25.694Z,0.79
2023-02-11T09:38:53.349Z,0.91
2023-02-11T09:41:54.814Z,0.97
2023-02-11T09:44:24.080Z,1.12
2023-02-11T09:47:00.669Z,1.36
2023-02-11T09:49:47.192Z,1.48
2023-02-11T09:52:33.331Z,1.58
2023-02-11T09:55:11.203Z,1.60
2023-02-11T09:57:37.969Z,1.61
2023-02-11T10:00:32.266Z,1.54
2023-02-11T10:03:08.363Z,1.65
2023-02-11T10:05:56.419Z,1.77
2023-02-11T10:08:44.181Z,1.96
2023-02-11T10:11:46.074Z,2.28
2023-02-11T10:14:16.507Z,2.40
2023-02-11T10:16:45.805Z,2.51
2023-02-11T10:19:21.185Z,2.62
2023-02-11T10:22:04.907Z,2.70
2023-02-11T10:24:32.421Z,2.78
2023-02-11T10:26:59.341Z,2.78
2023-02-11T10:29:43.571Z,2.69
2023-02-11T10:32:46.594Z,2.61
2023-02-11T10:35:21.168Z,2.72
2023-02-11T10:37:48.759Z,2.68
2023-02-11T10:40:25.057Z,2.74
2023-02-11T10:42:55.873Z,2.75
2023-02-11T10:45:32.488Z,2.80
2023-02-11T10:48:01.171Z,2.76
2023-02-11T10:50:33.472Z,2.88
2023-02-11T10:53:15.437Z,3.14
2023-02-11T10:55:54.139Z,3.21
2023-02-11T10:58:30.679Z,3.19
2023-02-11T11:00:59.822Z,3.33
2023-02-11T11:03:31.384Z,3.43
2023-02-11T11:06:01.024Z,3.49
2023-02-11T11:08:47.872Z,3.45
2023-02-11T11:11:22.434Z,3.44
2023-02-11T11:13:58.208Z,3.44
2023-02-11T11:16:30.522Z,3.78
2023-02-11T11:19:09.176Z,3.67
2023-02-11T11:21:54.944Z,3.68
2023-02-11T11:24:44.349Z,3.59
2023-02-11T11:27:19.655Z,3.58
2023-02-11T11:29:50.191Z,3.75
2023-02-11T11:32:21.888Z,3.97
2023-02-11T11:34:51.490Z,4.41
2023-02-11T11:37:32.502Z,4.61
2023-02-11T11:40:29.595Z,4.96
2023-02-11T11:43:12.964Z,5.10
2023-02-11T11:45:40.482Z,5.25
2023-02-11T11:48:18.536Z,5.38
2023-02-11T11:50:52.218Z,5.48
2023-02-11T11:53:37.366Z,5.55
2023-02-11T11:56:07.333Z,5.43
2023-02-11T11:58:34.411Z,5.44
2023-02-11T12:01:09.804Z,5.44
2023-02-11T12:03:36.407Z,5.53
2023-02-11T12:06:15.240Z,5.72
2023-02-11T12:08:59.006Z,5.84
2023-02-11T12:11:34.776Z,5.94
2023-02-11T12:14:23.264Z,5.97
2023-02-11T12:16:55.770Z,5.99
2023-02-11T12:19:40.312Z,6.10
2023-02-11T12:22:26.631Z,6.29
2023-02-11T12:25:21.124Z,6.36
2023-02-11T12:28:01.963Z,6.36
2023-02-11T12:30:40.178Z,6.33
2023-02-11T12:33:12.506Z,6.28
2023-02-11T12:35:59.719Z,6.31
2023-02-11T12:38:37.539Z,6.13
2023-02-11T12:41:10.382Z,6.17
2023-02-11T12:43:40.117Z,6.25
2023-02-11T12:46:32.941Z,6.32
2023-02-11T12:49:21.435Z,6.25
2023-02-11T12:52:09.262Z,6.22
2023-02-11T12:54:44.653Z,6.05
2023-02-11T12:57:19.758Z,6.12
2023-02-11T13:00:05.083Z,6.28
2023-02-11T13:02:51.324Z,6.31
2023-02-11T13:05:33.768Z,6.52
2023-02-11T13:08:09.109Z,6.87
2023-02-11T13:10:41.549Z,6.92
2023-02-11T13:13:26.827Z,7.01
2023-02-11T13:16:12.481Z,7.38
2023-02-11T13:19:07.808Z,7.62
2023-02-11T13:21:51.365Z,7.70
2023-02-11T13:24:37.190Z,7.58
2023-02-11T13:27:18.673Z,7.56
2023-02-11T13:30:29.053Z,7.70
2023-02-11T13:33:03.254Z,7.94
2023-02-11T13:35:37.764Z,8.09
2023-02-11T13:38:16.432Z,8.01
2023-02-11T13:40:43.931Z,8.04
2023-02-11T13:43:24.573Z,8.13
2023-02-11T13:45:57.942Z,8.12
2023-02-11T13:48:37.243Z,7.97
2023-02-11T13:51:07.590Z,7.85
2023-02-11T13:53:50.689Z,7.96
2023-02-11T13:56:30.296Z,8.23
2023-02-11T13:59:01.855Z,8.19
2023-02-11T14:02:07.295Z,8.39
2023-02-11T14:04:53.234Z,8.70
2023-02-11T14:07:52.771Z,8.83
2023-02-11T14:10:41.143Z,8.97
2023-02-11T14:13:27.468Z,9.13
2023-02-11T14:16:36.852Z,9.31
2023-02-11T14:19:06.228Z,9.43
2023-02-11T14:21:42.297Z,9.49
2023-02-11T14:24:12.927Z,9.48
2023-02-11T14:26:59.210Z,9.54
2023-02-11T14:29:34.647Z,9.60
2023-02-11T14:32:05.818Z,9.69
2023-02-11T14:34:41.863Z,9.79
2023-02-11T14:37:30.494Z,9.85
2023-02-11T14:40:03.078Z,9.82
2023-02-11T14:42:31.200Z,9.83
2023-02-11T14:45:05.335Z,9.78
2023-02-11T14:47:42.894Z,9.83
2023-02-11T14:50:19.315Z,9.91
2023-02-11T14:52:46.390Z,9.91
2023-02-11T14:55:23.773Z,9.83
2023-02-11T14:58:06.265Z,9.88
2023-02-11T15:00:32.954Z,9.85
2023-02-11T15:02:59.609Z,9.87
2023-02-11T15:05:29.321Z,9.85
2023-02-11T15:07:59.120Z,9.82
2023-02-11T15:10:32.915Z,9.77
2023-02-11T15:13:02.173Z,9.80
2023-02-11T15:15:31.392Z,9.82
2023-02-11T15:18:01.600Z,9.78
2023-02-11T15:20:31.822Z,9.77
2023-02-11T15:23:05.555Z,9.70
2023-02-11T15:25:34.139Z,9.65
2023-02-11T15:28:01.112Z,9.61
2023-02-11T15:30:34.184Z,9.51
2023-02-11T15:33:05.845Z,9.39
2023-02-11T15:35:40.968Z,9.38
2023-02-11T15:38:11.045Z,9.30
2023-02-11T15:40:37.951Z,9.22
2023-02-11T15:43:10.633Z,9.08
2023-02-11T15:45:44.598Z,8.95
2023-02-11T15:48:21.640Z,8.88
2023-02-11T15:51:01.549Z,8.74
2023-02-11T15:53:36.316Z,8.64
2023-02-11T15:56:11.763Z,8.53
2023-02-11T15:58:40.854Z,8.33
2023-02-11T16:01:08.804Z,8.14
2023-02-11T16:03:36.301Z,8.07
2023-02-11T16:06:35.474Z,7.95
2023-02-11T16:09:23.624Z,7.85
2023-02-11T16:11:50.260Z,7.82
2023-02-11T16:14:27.169Z,7.64
2023-02-11T16:16:58.836Z,7.51
2023-02-11T16:19:27.192Z,7.38
2023-02-11T16:21:56.613Z,7.27
2023-02-11T16:24:34.211Z,7.18
2023-02-11T16:27:03.119Z,7.15
2023-02-11T16:29:32.600Z,7.09
2023-02-11T16:32:28.934Z,7.00
2023-02-11T16:34:58.094Z,6.84
2023-02-11T16:37:25.606Z,6.76
2023-02-11T16:39:56.869Z,6.68
2023-02-11T16:42:23.712Z,6.57
2023-02-11T16:44:50.331Z,6.46
2023-02-11T16:47:24.338Z,6.34
2023-02-11T16:49:51.222Z,6.29
2023-02-11T16:52:19.814Z,6.20
2023-02-11T16:54:46.739Z,6.07
2023-02-11T16:57:24.600Z,6.02
2023-02-11T16:59:52.269Z,5.92
2023-02-11T17:02:24.119Z,5.79
2023-02-11T17:04:53.500Z,5.78
2023-02-11T17:07:20.185Z,5.78
2023-02-11T17:09:46.819Z,5.67
2023-02-11T17:12:13.602Z,5.72
2023-02-11T17:14:40.698Z,5.72
2023-02-11T17:17:08.042Z,5.53
2023-02-11T17:19:34.824Z,5.51
2023-02-11T17:22:01.601Z,5.47
2023-02-11T17:24:28.320Z,5.48
2023-02-11T17:26:55.133Z,5.41
2023-02-11T17:29:24.230Z,5.25
2023-02-11T17:31:52.204Z,5.20
2023-02-11T17:34:20.842Z,5.21
2023-02-11T17:36:47.743Z,5.17
2023-02-11T17:39:14.494Z,5.08
2023-02-11T17:41:41.467Z,5.09
2023-02-11T17:44:10.458Z,5.14
2023-02-11T17:46:37.086Z,5.04
2023-02-11T17:49:04.655Z,4.96
2023-02-11T17:51:34.694Z,4.93
2023-02-11T17:54:04.499Z,4.92
2023-02-11T17:56:36.197Z,4.81
2023-02-11T17:59:04.161Z,4.70
2023-02-11T18:01:33.034Z,4.56
2023-02-11T18:03:59.916Z,4.52
2023-02-11T18:06:27.074Z,4.46
2023-02-11T18:08:56.884Z,4.45
2023-02-11T18:11:25.264Z,4.39
2023-02-11T18:13:54.607Z,4.28
2023-02-11T18:16:23.742Z,4.30
2023-02-11T18:18:50.696Z,4.37
2023-02-11T18:21:20.359Z,4.33
2023-02-11T18:23:48.303Z,4.23
2023-02-11T18:26:17.981Z,4.29
2023-02-11T18:28:46.062Z,4.38
2023-02-11T18:31:13.851Z,4.38
2023-02-11T18:33:41.661Z,4.44
2023-02-11T18:36:11.154Z,4.56
2023-02-11T18:38:38.450Z,4.47
2023-02-11T18:41:05.368Z,4.39
2023-02-11T18:43:33.739Z,4.50
2023-02-11T18:46:02.197Z,4.50
2023-02-11T18:48:29.257Z,4.35
2023-02-11T18:50:56.460Z,4.22
2023-02-11T18:53:24.592Z,4.22
2023-02-11T18:55:52.080Z,4.14
2023-02-11T18:58:21.179Z,4.24
2023-02-11T19:00:49.111Z,4.26
2023-02-11T19:03:16.654Z,4.24
2023-02-11T19:05:48.315Z,4.05
2023-02-11T19:08:16.912Z,3.85
2023-02-11T19:10:47.924Z,4.05
2023-02-11T19:13:15.039Z,4.01
2023-02-11T19:15:43.477Z,3.97
2023-02-11T19:18:11.105Z,3.89
2023-02-11T19:20:43.457Z,3.81
2023-02-11T19:23:10.852Z,3.86
2023-02-11T19:25:37.766Z,3.92
2023-02-11T19:28:04.442Z,3.86
2023-02-11T19:30:31.089Z,3.88
2023-02-11T19:32:57.924Z,3.96
2023-02-11T19:35:25.297Z,3.91
2023-02-11T19:37:52.066Z,3.81
2023-02-11T19:40:21.113Z,3.66
2023-02-11T19:42:47.911Z,3.64
2023-02-11T19:45:14.595Z,3.64
2023-02-11T19:47:41.392Z,3.70
2023-02-11T19:50:08.649Z,3.65
2023-02-11T19:52:38.317Z,3.67
2023-02-11T19:55:05.468Z,3.63
2023-02-11T19:57:32.126Z,3.58
2023-02-11T19:59:58.967Z,3.58
2023-02-11T20:02:25.651Z,3.62
2023-02-11T20:04:52.474Z,3.67
2023-02-11T20:07:19.010Z,3.70
2023-02-11T20:09:45.682Z,3.64
2023-02-11T20:12:12.436Z,3.57
2023-02-11T20:14:39.087Z,3.58
2023-02-11T20:17:05.663Z,3.55
2023-02-11T20:19:32.450Z,3.50
2023-02-11T20:21:59.146Z,3.47
2023-02-11T20:24:26.265Z,3.30
2023-02-11T20:26:56.060Z,3.34
2023-02-11T20:29:23.745Z,3.43
2023-02-11T20:31:50.808Z,3.36
2023-02-11T20:34:17.896Z,3.31
2023-02-11T20:36:51.482Z,3.27
2023-02-11T20:39:18.982Z,3.18
2023-02-11T20:41:46.210Z,3.13
2023-02-11T20:44:13.808Z,3.17
2023-02-11T20:46:43.599Z,3.15
2023-02-11T20:49:12.582Z,3.28
2023-02-11T20:51:39.555Z,3.37
2023-02-11T20:54:06.936Z,3.23
2023-02-11T20:56:38.231Z,3.12
2023-02-11T20:59:05.839Z,3.09
2023-02-11T21:01:40.282Z,3.12
2023-02-11T21:04:12.803Z,3.20
2023-02-11T21:06:42.964Z,3.14
2023-02-11T21:09:13.995Z,3.12
2023-02-11T21:11:41.549Z,3.06
2023-02-11T21:14:10.041Z,3.04
2023-02-11T21:16:36.951Z,3.01
2023-02-11T21:19:04.325Z,2.91
2023-02-11T21:21:31.915Z,2.82
2023-02-11T21:23:58.696Z,2.84
2023-02-11T21:26:25.945Z,2.84
2023-02-11T21:28:52.946Z,2.94
2023-02-11T21:31:22.928Z,2.97
2023-02-11T21:33:50.946Z,2.87
2023-02-11T21:36:17.916Z,2.79
2023-02-11T21:38:44.910Z,2.71
2023-02-11T21:41:12.002Z,2.69
2023-02-11T21:43:38.974Z,2.69
2023-02-11T21:46:10.550Z,2.65
2023-02-11T21:48:37.700Z,2.61
2023-02-11T21:51:12.833Z,2.58
2023-02-11T21:53:39.635Z,2.66
2023-02-11T21:56:08.810Z,2.56
2023-02-11T21:58:36.061Z,2.67
2023-02-11T22:01:19.899Z,2.65
2023-02-11T22:03:47.305Z,2.62
2023-02-11T22:06:17.166Z,2.54
2023-02-11T22:08:43.983Z,2.62
2023-02-11T22:11:12.613Z,2.73
2023-02-11T22:13:40.045Z,2.66
2023-02-11T22:16:09.825Z,2.67
2023-02-11T22:18:36.797Z,2.43
2023-02-11T22:21:06.564Z,2.54
2023-02-11T22:23:33.899Z,2.50
2023-02-11T22:26:14.089Z,2.56
2023-02-11T22:28:40.966Z,2.40
2023-02-11T22:31:13.491Z,2.54
2023-02-11T22:33:40.782Z,2.54
2023-02-11T22:36:12.132Z,2.48
2023-02-11T22:38:38.979Z,2.47
2023-02-11T22:41:08.070Z,2.48
2023-02-11T22:43:35.178Z,2.51
2023-02-11T22:46:07.272Z,2.49
2023-02-11T22:48:35.284Z,2.43
2023-02-11T22:51:06.685Z,2.26
2023-02-11T22:53:33.847Z,2.34
2023-02-11T22:56:05.527Z,2.19
2023-02-11T22:58:32.216Z,2.25
2023-02-11T23:00:58.895Z,2.27
2023-02-11T23:03:26.280Z,2.29
2023-02-11T23:05:53.109Z,2.31
2023-02-11T23:08:20.690Z,2.36
2023-02-11T23:10:47.409Z,2.35
2023-02-11T23:13:14.942Z,2.27
2023-02-11T23:15:43.133Z,2.26
2023-02-11T23:18:11.318Z,2.29
2023-02-11T23:20:39.850Z,2.20
2023-02-11T23:23:09.384Z,2.26
2023-02-11T23:25:42.643Z,2.34
2023-02-11T23:28:10.046Z,2.44
2023-02-11T23:30:36.888Z,2.38
2023-02-11T23:33:03.587Z,2.35
2023-02-11T23:35:30.495Z,2.20
2023-02-11T23:37:57.171Z,2.14
2023-02-11T23:40:23.953Z,2.19
2023-02-11T23:42:50.634Z,2.26
2023-02-11T23:45:17.349Z,2.23
2023-02-11T23:47:45.116Z,2.13
2023-02-11T23:50:11.997Z,2.21
2023-02-11T23:52:38.703Z,2.27
2023-02-11T23:55:05.863Z,2.23
2023-02-11T23:57:33.204Z,2.17
